sensor_id;sensor_type;location;lat;lon;timestamp;temperature;humidity
11385;DHT22;5747;56.748;13.882;2024-03-02T00:01:19;6.30;99.90
11385;DHT22;5747;56.748;13.882;2024-03-02T00:03:47;6.30;99.90
11385;DHT22;5747;56.748;13.882;2024-03-02T00:06:16;6.30;99.90
11385;DHT22;5747;56.748;13.882;2024-03-02T00:08:47;6.30;99.90
11385;DHT22;5747;56.748;13.882;2024-03-02T00:11:16;6.30;99.90
11385;DHT22;5747;56.748;13.882;2024-03-02T00:13:47;6.30;99.90
11385;DHT22;5747;56.748;13.882;2024-03-02T00:16:16;6.30;99.90
11385;DHT22;5747;56.748;13.882;2024-03-02T00:18:45;6.30;99.90
11385;DHT22;5747;56.748;13.882;2024-03-02T00:21:13;6.30;99.90
11385;DHT22;5747;56.748;13.882;2024-03-02T00:23:43;6.30;99.90
11385;DHT22;5747;56.748;13.882;2024-03-02T00:26:12;6.30;99.90
11385;DHT22;5747;56.748;13.882;2024-03-02T00:28:41;6.30;99.90
11385;DHT22;5747;56.748;13.882;2024-03-02T00:31:12;6.30;99.90
11385;DHT22;5747;56.748;13.882;2024-03-02T00:33:42;6.40;99.90
11385;DHT22;5747;56.748;13.882;2024-03-02T00:36:13;6.40;99.90
11385;DHT22;5747;56.748;13.882;2024-03-02T00:38:45;6.40;99.90
11385;DHT22;5747;56.748;13.882;2024-03-02T00:41:21;6.40;99.90
11385;DHT22;5747;56.748;13.882;2024-03-02T00:43:58;6.50;99.90
11385;DHT22;5747;56.748;13.882;2024-03-02T00:46:31;6.50;99.90
11385;DHT22;5747;56.748;13.882;2024-03-02T00:49:03;6.50;99.90
11385;DHT22;5747;56.748;13.882;2024-03-02T00:51:33;6.50;99.90
11385;DHT22;5747;56.748;13.882;2024-03-02T00:54:03;6.60;99.90
11385;DHT22;5747;56.748;13.882;2024-03-02T00:56:32;6.60;99.90
11385;DHT22;5747;56.748;13.882;2024-03-02T00:59:01;6.60;99.90
11385;DHT22;5747;56.748;13.882;2024-03-02T01:01:31;6.60;99.90
11385;DHT22;5747;56.748;13.882;2024-03-02T01:03:59;6.60;99.90
11385;DHT22;5747;56.748;13.882;2024-03-02T01:06:27;6.60;99.90
11385;DHT22;5747;56.748;13.882;2024-03-02T01:08:55;6.60;99.90
11385;DHT22;5747;56.748;13.882;2024-03-02T01:11:23;6.70;99.90
11385;DHT22;5747;56.748;13.882;2024-03-02T01:13:52;6.70;99.90
11385;DHT22;5747;56.748;13.882;2024-03-02T01:16:20;6.60;99.90
11385;DHT22;5747;56.748;13.882;2024-03-02T01:18:50;6.70;99.90
11385;DHT22;5747;56.748;13.882;2024-03-02T01:21:18;6.70;99.90
11385;DHT22;5747;56.748;13.882;2024-03-02T01:23:46;6.70;99.90
11385;DHT22;5747;56.748;13.882;2024-03-02T01:26:15;6.70;99.90
11385;DHT22;5747;56.748;13.882;2024-03-02T01:28:43;6.70;99.90
11385;DHT22;5747;56.748;13.882;2024-03-02T01:31:11;6.70;99.90
11385;DHT22;5747;56.748;13.882;2024-03-02T01:33:39;6.70;99.90
11385;DHT22;5747;56.748;13.882;2024-03-02T01:36:09;6.70;99.90
11385;DHT22;5747;56.748;13.882;2024-03-02T01:38:37;6.70;99.90
11385;DHT22;5747;56.748;13.882;2024-03-02T01:41:05;6.70;99.90
11385;DHT22;5747;56.748;13.882;2024-03-02T01:43:33;6.70;99.90
11385;DHT22;5747;56.748;13.882;2024-03-02T01:46:06;6.70;99.90
11385;DHT22;5747;56.748;13.882;2024-03-02T01:48:34;6.70;99.90
11385;DHT22;5747;56.748;13.882;2024-03-02T01:51:02;6.70;99.90
11385;DHT22;5747;56.748;13.882;2024-03-02T01:53:34;6.70;99.90
11385;DHT22;5747;56.748;13.882;2024-03-02T01:56:03;6.70;99.90
11385;DHT22;5747;56.748;13.882;2024-03-02T01:58:31;6.70;99.90
11385;DHT22;5747;56.748;13.882;2024-03-02T02:00:59;6.60;99.90
11385;DHT22;5747;56.748;13.882;2024-03-02T02:03:28;6.60;99.90
11385;DHT22;5747;56.748;13.882;2024-03-02T02:05:56;6.60;99.90
11385;DHT22;5747;56.748;13.882;2024-03-02T02:08:24;6.60;99.90
11385;DHT22;5747;56.748;13.882;2024-03-02T02:10:54;6.60;99.90
11385;DHT22;5747;56.748;13.882;2024-03-02T02:13:22;6.60;99.90
11385;DHT22;5747;56.748;13.882;2024-03-02T02:15:51;6.50;99.90
11385;DHT22;5747;56.748;13.882;2024-03-02T02:18:20;6.50;99.90
11385;DHT22;5747;56.748;13.882;2024-03-02T02:20:48;6.50;99.90
11385;DHT22;5747;56.748;13.882;2024-03-02T02:23:18;6.60;99.90
11385;DHT22;5747;56.748;13.882;2024-03-02T02:25:46;6.50;99.90
11385;DHT22;5747;56.748;13.882;2024-03-02T02:28:14;6.50;99.90
11385;DHT22;5747;56.748;13.882;2024-03-02T02:30:42;6.50;99.90
11385;DHT22;5747;56.748;13.882;2024-03-02T02:33:11;6.50;99.90
11385;DHT22;5747;56.748;13.882;2024-03-02T02:35:39;6.50;99.90
11385;DHT22;5747;56.748;13.882;2024-03-02T02:38:08;6.40;99.90
11385;DHT22;5747;56.748;13.882;2024-03-02T02:40:37;6.50;99.90
11385;DHT22;5747;56.748;13.882;2024-03-02T02:43:05;6.50;99.90
11385;DHT22;5747;56.748;13.882;2024-03-02T02:45:34;6.50;99.90
11385;DHT22;5747;56.748;13.882;2024-03-02T02:48:03;6.50;99.90
11385;DHT22;5747;56.748;13.882;2024-03-02T02:50:32;6.50;99.90
11385;DHT22;5747;56.748;13.882;2024-03-02T02:53:00;6.50;99.90
11385;DHT22;5747;56.748;13.882;2024-03-02T02:55:28;6.50;99.90
11385;DHT22;5747;56.748;13.882;2024-03-02T02:57:58;6.50;99.90
11385;DHT22;5747;56.748;13.882;2024-03-02T03:00:26;6.50;99.90
11385;DHT22;5747;56.748;13.882;2024-03-02T03:02:55;6.50;99.90
11385;DHT22;5747;56.748;13.882;2024-03-02T03:05:23;6.50;99.90
11385;DHT22;5747;56.748;13.882;2024-03-02T03:07:51;6.50;99.90
11385;DHT22;5747;56.748;13.882;2024-03-02T03:10:20;6.50;99.90
11385;DHT22;5747;56.748;13.882;2024-03-02T03:12:50;6.50;99.90
11385;DHT22;5747;56.748;13.882;2024-03-02T03:15:20;6.50;99.90
11385;DHT22;5747;56.748;13.882;2024-03-02T03:17:48;6.50;99.90
11385;DHT22;5747;56.748;13.882;2024-03-02T03:20:17;6.40;99.90
11385;DHT22;5747;56.748;13.882;2024-03-02T03:22:48;6.40;99.90
11385;DHT22;5747;56.748;13.882;2024-03-02T03:25:16;6.40;99.90
11385;DHT22;5747;56.748;13.882;2024-03-02T03:27:44;6.40;99.90
11385;DHT22;5747;56.748;13.882;2024-03-02T03:30:13;6.40;99.90
11385;DHT22;5747;56.748;13.882;2024-03-02T03:32:43;6.30;99.90
11385;DHT22;5747;56.748;13.882;2024-03-02T03:35:11;6.30;99.90
11385;DHT22;5747;56.748;13.882;2024-03-02T03:37:41;6.30;99.90
11385;DHT22;5747;56.748;13.882;2024-03-02T03:40:10;6.30;99.90
11385;DHT22;5747;56.748;13.882;2024-03-02T03:42:39;6.30;99.90
11385;DHT22;5747;56.748;13.882;2024-03-02T03:45:08;6.20;99.90
11385;DHT22;5747;56.748;13.882;2024-03-02T03:47:36;6.20;99.90
11385;DHT22;5747;56.748;13.882;2024-03-02T03:50:07;6.10;99.90
11385;DHT22;5747;56.748;13.882;2024-03-02T03:52:35;6.10;99.90
11385;DHT22;5747;56.748;13.882;2024-03-02T03:55:04;6.10;99.90
11385;DHT22;5747;56.748;13.882;2024-03-02T03:57:33;6.10;99.90
11385;DHT22;5747;56.748;13.882;2024-03-02T04:00:02;6.10;99.90
11385;DHT22;5747;56.748;13.882;2024-03-02T04:02:37;6.10;99.90
11385;DHT22;5747;56.748;13.882;2024-03-02T04:05:08;6.10;99.90
11385;DHT22;5747;56.748;13.882;2024-03-02T04:07:38;6.10;99.90
11385;DHT22;5747;56.748;13.882;2024-03-02T04:10:09;6.10;99.90
11385;DHT22;5747;56.748;13.882;2024-03-02T04:12:37;6.10;99.90
11385;DHT22;5747;56.748;13.882;2024-03-02T04:15:06;6.10;99.90
11385;DHT22;5747;56.748;13.882;2024-03-02T04:17:34;6.10;99.90
11385;DHT22;5747;56.748;13.882;2024-03-02T04:20:04;6.10;99.90
11385;DHT22;5747;56.748;13.882;2024-03-02T04:22:34;6.10;99.90
11385;DHT22;5747;56.748;13.882;2024-03-02T04:25:03;6.10;99.90
11385;DHT22;5747;56.748;13.882;2024-03-02T04:27:34;6.10;99.90
11385;DHT22;5747;56.748;13.882;2024-03-02T04:30:04;6.10;99.90
11385;DHT22;5747;56.748;13.882;2024-03-02T04:32:32;6.10;99.90
11385;DHT22;5747;56.748;13.882;2024-03-02T04:35:01;6.10;99.90
11385;DHT22;5747;56.748;13.882;2024-03-02T04:37:29;6.10;99.90
11385;DHT22;5747;56.748;13.882;2024-03-02T04:39:59;6.10;99.90
11385;DHT22;5747;56.748;13.882;2024-03-02T04:42:27;6.10;99.90
11385;DHT22;5747;56.748;13.882;2024-03-02T04:44:56;6.10;99.90
11385;DHT22;5747;56.748;13.882;2024-03-02T04:47:24;6.10;99.90
11385;DHT22;5747;56.748;13.882;2024-03-02T04:49:52;6.10;99.90
11385;DHT22;5747;56.748;13.882;2024-03-02T04:52:20;6.00;99.90
11385;DHT22;5747;56.748;13.882;2024-03-02T04:54:48;6.10;99.90
11385;DHT22;5747;56.748;13.882;2024-03-02T04:57:35;6.10;99.90
11385;DHT22;5747;56.748;13.882;2024-03-02T05:00:04;6.10;99.90
11385;DHT22;5747;56.748;13.882;2024-03-02T05:02:35;6.10;99.90
11385;DHT22;5747;56.748;13.882;2024-03-02T05:05:04;6.10;99.90
11385;DHT22;5747;56.748;13.882;2024-03-02T05:07:32;6.10;99.90
11385;DHT22;5747;56.748;13.882;2024-03-02T05:10:00;6.10;99.90
11385;DHT22;5747;56.748;13.882;2024-03-02T05:12:29;6.10;99.90
11385;DHT22;5747;56.748;13.882;2024-03-02T05:15:25;6.10;99.90
11385;DHT22;5747;56.748;13.882;2024-03-02T05:17:53;6.10;99.90
11385;DHT22;5747;56.748;13.882;2024-03-02T05:20:21;6.10;99.90
11385;DHT22;5747;56.748;13.882;2024-03-02T05:22:49;6.10;99.90
11385;DHT22;5747;56.748;13.882;2024-03-02T05:25:17;6.00;99.90
11385;DHT22;5747;56.748;13.882;2024-03-02T05:27:46;6.00;99.90
11385;DHT22;5747;56.748;13.882;2024-03-02T05:30:14;6.00;99.90
11385;DHT22;5747;56.748;13.882;2024-03-02T05:32:44;6.00;99.90
11385;DHT22;5747;56.748;13.882;2024-03-02T05:35:12;6.00;99.90
11385;DHT22;5747;56.748;13.882;2024-03-02T05:37:40;6.00;99.90
11385;DHT22;5747;56.748;13.882;2024-03-02T05:40:09;5.90;99.90
11385;DHT22;5747;56.748;13.882;2024-03-02T05:42:38;5.90;99.90
11385;DHT22;5747;56.748;13.882;2024-03-02T05:45:08;5.90;99.90
11385;DHT22;5747;56.748;13.882;2024-03-02T05:47:36;5.90;99.90
11385;DHT22;5747;56.748;13.882;2024-03-02T05:50:07;5.80;99.90
11385;DHT22;5747;56.748;13.882;2024-03-02T05:52:35;5.80;99.90
11385;DHT22;5747;56.748;13.882;2024-03-02T05:55:04;5.80;99.90
11385;DHT22;5747;56.748;13.882;2024-03-02T05:57:32;5.80;99.90
11385;DHT22;5747;56.748;13.882;2024-03-02T06:00:15;5.80;99.90
11385;DHT22;5747;56.748;13.882;2024-03-02T06:02:44;5.80;99.90
11385;DHT22;5747;56.748;13.882;2024-03-02T06:05:14;5.80;99.90
11385;DHT22;5747;56.748;13.882;2024-03-02T06:07:43;5.80;99.90
11385;DHT22;5747;56.748;13.882;2024-03-02T06:10:12;5.80;99.90
11385;DHT22;5747;56.748;13.882;2024-03-02T06:12:41;5.80;99.90
11385;DHT22;5747;56.748;13.882;2024-03-02T06:15:10;5.80;99.90
11385;DHT22;5747;56.748;13.882;2024-03-02T06:17:38;5.80;99.90
11385;DHT22;5747;56.748;13.882;2024-03-02T06:20:07;5.80;99.90
11385;DHT22;5747;56.748;13.882;2024-03-02T06:22:37;5.80;99.90
11385;DHT22;5747;56.748;13.882;2024-03-02T06:25:06;5.80;99.90
11385;DHT22;5747;56.748;13.882;2024-03-02T06:27:35;5.80;99.90
11385;DHT22;5747;56.748;13.882;2024-03-02T06:30:04;5.80;99.90
11385;DHT22;5747;56.748;13.882;2024-03-02T06:32:32;5.70;99.90
11385;DHT22;5747;56.748;13.882;2024-03-02T06:35:00;5.70;99.90
11385;DHT22;5747;56.748;13.882;2024-03-02T06:37:29;5.80;99.90
11385;DHT22;5747;56.748;13.882;2024-03-02T06:39:58;5.80;99.90
11385;DHT22;5747;56.748;13.882;2024-03-02T06:42:27;5.80;99.90
11385;DHT22;5747;56.748;13.882;2024-03-02T06:45:00;5.80;99.90
11385;DHT22;5747;56.748;13.882;2024-03-02T06:47:28;5.80;99.90
11385;DHT22;5747;56.748;13.882;2024-03-02T06:49:57;5.80;99.90
11385;DHT22;5747;56.748;13.882;2024-03-02T06:52:25;5.80;99.90
11385;DHT22;5747;56.748;13.882;2024-03-02T06:54:53;5.70;99.90
11385;DHT22;5747;56.748;13.882;2024-03-02T06:57:23;5.70;99.90
11385;DHT22;5747;56.748;13.882;2024-03-02T06:59:51;5.70;99.90
11385;DHT22;5747;56.748;13.882;2024-03-02T07:02:25;5.70;99.90
11385;DHT22;5747;56.748;13.882;2024-03-02T07:04:54;5.70;99.90
11385;DHT22;5747;56.748;13.882;2024-03-02T07:07:22;5.60;99.90
11385;DHT22;5747;56.748;13.882;2024-03-02T07:09:50;5.60;99.90
11385;DHT22;5747;56.748;13.882;2024-03-02T07:12:18;5.70;99.90
11385;DHT22;5747;56.748;13.882;2024-03-02T07:14:48;5.70;99.90
11385;DHT22;5747;56.748;13.882;2024-03-02T07:17:38;5.70;99.90
11385;DHT22;5747;56.748;13.882;2024-03-02T07:20:06;5.60;99.90
11385;DHT22;5747;56.748;13.882;2024-03-02T07:22:35;5.60;99.90
11385;DHT22;5747;56.748;13.882;2024-03-02T07:25:07;5.60;99.90
11385;DHT22;5747;56.748;13.882;2024-03-02T07:27:56;5.60;99.90
11385;DHT22;5747;56.748;13.882;2024-03-02T07:30:25;5.60;99.90
11385;DHT22;5747;56.748;13.882;2024-03-02T07:32:55;5.60;99.90
11385;DHT22;5747;56.748;13.882;2024-03-02T07:35:23;5.60;99.90
11385;DHT22;5747;56.748;13.882;2024-03-02T07:37:54;5.60;99.90
11385;DHT22;5747;56.748;13.882;2024-03-02T07:40:23;5.60;99.90
11385;DHT22;5747;56.748;13.882;2024-03-02T07:42:52;5.60;99.90
11385;DHT22;5747;56.748;13.882;2024-03-02T07:45:20;5.70;99.90
11385;DHT22;5747;56.748;13.882;2024-03-02T07:47:50;5.70;99.90
11385;DHT22;5747;56.748;13.882;2024-03-02T07:50:18;5.70;99.90
11385;DHT22;5747;56.748;13.882;2024-03-02T07:52:47;5.70;99.90
11385;DHT22;5747;56.748;13.882;2024-03-02T07:55:15;5.70;99.90
11385;DHT22;5747;56.748;13.882;2024-03-02T07:57:43;5.70;99.90
11385;DHT22;5747;56.748;13.882;2024-03-02T08:00:12;5.80;99.90
11385;DHT22;5747;56.748;13.882;2024-03-02T08:02:41;5.80;99.90
11385;DHT22;5747;56.748;13.882;2024-03-02T08:05:11;5.80;99.90
11385;DHT22;5747;56.748;13.882;2024-03-02T08:07:40;5.90;99.90
11385;DHT22;5747;56.748;13.882;2024-03-02T08:10:09;5.80;99.90
11385;DHT22;5747;56.748;13.882;2024-03-02T08:12:37;5.80;99.90
11385;DHT22;5747;56.748;13.882;2024-03-02T08:15:06;5.80;99.90
11385;DHT22;5747;56.748;13.882;2024-03-02T08:17:34;5.80;99.90
11385;DHT22;5747;56.748;13.882;2024-03-02T08:20:06;5.70;99.90
11385;DHT22;5747;56.748;13.882;2024-03-02T08:22:36;5.70;99.90
11385;DHT22;5747;56.748;13.882;2024-03-02T08:25:05;5.60;99.90
11385;DHT22;5747;56.748;13.882;2024-03-02T08:27:33;5.70;99.90
11385;DHT22;5747;56.748;13.882;2024-03-02T08:30:02;5.60;99.90
11385;DHT22;5747;56.748;13.882;2024-03-02T08:32:34;5.60;99.90
11385;DHT22;5747;56.748;13.882;2024-03-02T08:35:03;5.60;99.90
11385;DHT22;5747;56.748;13.882;2024-03-02T08:37:31;5.60;99.90
11385;DHT22;5747;56.748;13.882;2024-03-02T08:40:01;5.60;99.90
11385;DHT22;5747;56.748;13.882;2024-03-02T08:42:31;5.70;99.90
11385;DHT22;5747;56.748;13.882;2024-03-02T08:44:59;5.80;99.90
11385;DHT22;5747;56.748;13.882;2024-03-02T08:47:28;5.80;99.90
11385;DHT22;5747;56.748;13.882;2024-03-02T08:49:56;5.80;99.90
11385;DHT22;5747;56.748;13.882;2024-03-02T08:52:27;5.80;99.90
11385;DHT22;5747;56.748;13.882;2024-03-02T08:54:56;5.90;99.90
11385;DHT22;5747;56.748;13.882;2024-03-02T08:57:25;5.90;99.90
11385;DHT22;5747;56.748;13.882;2024-03-02T08:59:53;5.90;99.90
11385;DHT22;5747;56.748;13.882;2024-03-02T09:02:22;6.00;99.90
11385;DHT22;5747;56.748;13.882;2024-03-02T09:04:50;6.00;99.90
11385;DHT22;5747;56.748;13.882;2024-03-02T09:07:18;6.00;99.90
11385;DHT22;5747;56.748;13.882;2024-03-02T09:09:46;6.00;99.90
11385;DHT22;5747;56.748;13.882;2024-03-02T09:12:15;6.00;99.90
11385;DHT22;5747;56.748;13.882;2024-03-02T09:14:45;5.90;99.90
11385;DHT22;5747;56.748;13.882;2024-03-02T09:17:14;5.80;99.90
11385;DHT22;5747;56.748;13.882;2024-03-02T09:19:42;5.90;99.90
11385;DHT22;5747;56.748;13.882;2024-03-02T09:22:10;5.90;99.90
11385;DHT22;5747;56.748;13.882;2024-03-02T09:24:38;5.90;99.90
11385;DHT22;5747;56.748;13.882;2024-03-02T09:27:07;5.80;99.90
11385;DHT22;5747;56.748;13.882;2024-03-02T09:29:35;5.80;99.90
11385;DHT22;5747;56.748;13.882;2024-03-02T09:34:35;5.80;99.90
11385;DHT22;5747;56.748;13.882;2024-03-02T09:37:03;5.80;99.90
11385;DHT22;5747;56.748;13.882;2024-03-02T09:39:31;5.80;99.90
11385;DHT22;5747;56.748;13.882;2024-03-02T09:42:00;5.80;99.90
11385;DHT22;5747;56.748;13.882;2024-03-02T09:44:30;5.80;99.90
11385;DHT22;5747;56.748;13.882;2024-03-02T09:46:58;5.80;99.90
11385;DHT22;5747;56.748;13.882;2024-03-02T09:49:28;5.80;99.90
11385;DHT22;5747;56.748;13.882;2024-03-02T09:51:56;5.80;99.90
11385;DHT22;5747;56.748;13.882;2024-03-02T09:54:25;5.80;99.90
11385;DHT22;5747;56.748;13.882;2024-03-02T09:56:53;5.90;99.90
11385;DHT22;5747;56.748;13.882;2024-03-02T09:59:21;5.90;99.90
11385;DHT22;5747;56.748;13.882;2024-03-02T10:01:56;6.00;99.90
11385;DHT22;5747;56.748;13.882;2024-03-02T10:04:28;6.00;99.90
11385;DHT22;5747;56.748;13.882;2024-03-02T10:07:12;6.00;99.90
11385;DHT22;5747;56.748;13.882;2024-03-02T10:09:42;6.00;99.90
11385;DHT22;5747;56.748;13.882;2024-03-02T10:12:13;6.00;99.90
11385;DHT22;5747;56.748;13.882;2024-03-02T10:14:42;6.10;99.90
11385;DHT22;5747;56.748;13.882;2024-03-02T10:17:11;6.10;99.90
11385;DHT22;5747;56.748;13.882;2024-03-02T10:19:41;6.10;99.90
11385;DHT22;5747;56.748;13.882;2024-03-02T10:22:10;6.10;99.90
11385;DHT22;5747;56.748;13.882;2024-03-02T10:24:40;6.10;99.90
11385;DHT22;5747;56.748;13.882;2024-03-02T10:27:10;6.20;99.90
11385;DHT22;5747;56.748;13.882;2024-03-02T10:29:39;6.20;99.90
11385;DHT22;5747;56.748;13.882;2024-03-02T10:32:11;6.20;99.90
11385;DHT22;5747;56.748;13.882;2024-03-02T10:34:43;6.20;99.90
11385;DHT22;5747;56.748;13.882;2024-03-02T10:37:12;6.30;99.90
11385;DHT22;5747;56.748;13.882;2024-03-02T10:39:40;6.30;99.90
11385;DHT22;5747;56.748;13.882;2024-03-02T10:42:09;6.30;99.90
11385;DHT22;5747;56.748;13.882;2024-03-02T10:44:37;6.30;99.90
11385;DHT22;5747;56.748;13.882;2024-03-02T10:47:06;6.30;99.90
11385;DHT22;5747;56.748;13.882;2024-03-02T10:49:34;6.20;99.90
11385;DHT22;5747;56.748;13.882;2024-03-02T10:52:04;6.20;99.90
11385;DHT22;5747;56.748;13.882;2024-03-02T10:54:32;6.30;99.90
11385;DHT22;5747;56.748;13.882;2024-03-02T10:57:07;6.30;99.90
11385;DHT22;5747;56.748;13.882;2024-03-02T10:59:46;6.40;99.90
11385;DHT22;5747;56.748;13.882;2024-03-02T11:02:21;6.40;99.90
11385;DHT22;5747;56.748;13.882;2024-03-02T11:04:50;6.50;99.90
11385;DHT22;5747;56.748;13.882;2024-03-02T11:07:23;6.50;99.90
11385;DHT22;5747;56.748;13.882;2024-03-02T11:10:00;6.60;99.90
11385;DHT22;5747;56.748;13.882;2024-03-02T11:12:39;6.70;99.90
11385;DHT22;5747;56.748;13.882;2024-03-02T11:15:10;6.70;99.90
11385;DHT22;5747;56.748;13.882;2024-03-02T11:17:39;6.70;99.90
11385;DHT22;5747;56.748;13.882;2024-03-02T11:20:09;6.70;99.90
11385;DHT22;5747;56.748;13.882;2024-03-02T11:22:39;6.70;99.90
11385;DHT22;5747;56.748;13.882;2024-03-02T11:25:23;6.70;99.90
11385;DHT22;5747;56.748;13.882;2024-03-02T11:28:10;6.60;99.90
11385;DHT22;5747;56.748;13.882;2024-03-02T11:30:53;6.60;99.90
11385;DHT22;5747;56.748;13.882;2024-03-02T11:33:26;6.60;99.90
11385;DHT22;5747;56.748;13.882;2024-03-02T11:36:00;6.70;99.90
11385;DHT22;5747;56.748;13.882;2024-03-02T11:38:33;6.70;99.90
11385;DHT22;5747;56.748;13.882;2024-03-02T11:41:06;6.70;99.90
11385;DHT22;5747;56.748;13.882;2024-03-02T11:43:40;6.70;99.90
11385;DHT22;5747;56.748;13.882;2024-03-02T11:46:11;6.60;99.90
11385;DHT22;5747;56.748;13.882;2024-03-02T11:48:41;6.60;99.90
11385;DHT22;5747;56.748;13.882;2024-03-02T11:51:11;6.60;99.90
11385;DHT22;5747;56.748;13.882;2024-03-02T11:53:43;6.50;99.90
11385;DHT22;5747;56.748;13.882;2024-03-02T11:56:14;6.50;99.90
11385;DHT22;5747;56.748;13.882;2024-03-02T11:58:44;6.50;99.90
11385;DHT22;5747;56.748;13.882;2024-03-02T12:01:16;6.60;99.90
11385;DHT22;5747;56.748;13.882;2024-03-02T12:03:46;6.60;99.90
11385;DHT22;5747;56.748;13.882;2024-03-02T12:06:17;6.60;99.90
11385;DHT22;5747;56.748;13.882;2024-03-02T12:08:52;6.60;99.90
11385;DHT22;5747;56.748;13.882;2024-03-02T12:11:21;6.50;99.90
11385;DHT22;5747;56.748;13.882;2024-03-02T12:13:52;6.60;99.90
11385;DHT22;5747;56.748;13.882;2024-03-02T12:16:24;6.60;99.90
11385;DHT22;5747;56.748;13.882;2024-03-02T12:18:52;6.60;99.90
11385;DHT22;5747;56.748;13.882;2024-03-02T12:21:21;6.60;99.90
11385;DHT22;5747;56.748;13.882;2024-03-02T12:23:50;6.60;99.90
11385;DHT22;5747;56.748;13.882;2024-03-02T12:26:19;6.60;99.90
11385;DHT22;5747;56.748;13.882;2024-03-02T12:28:47;6.60;99.90
11385;DHT22;5747;56.748;13.882;2024-03-02T12:31:16;6.60;99.90
11385;DHT22;5747;56.748;13.882;2024-03-02T12:33:44;6.60;99.90
11385;DHT22;5747;56.748;13.882;2024-03-02T12:36:13;6.60;99.90
11385;DHT22;5747;56.748;13.882;2024-03-02T12:38:43;6.70;99.90
11385;DHT22;5747;56.748;13.882;2024-03-02T12:41:14;6.70;99.90
11385;DHT22;5747;56.748;13.882;2024-03-02T12:43:42;6.70;99.90
11385;DHT22;5747;56.748;13.882;2024-03-02T12:46:11;6.70;99.90
11385;DHT22;5747;56.748;13.882;2024-03-02T12:48:39;6.80;99.90
11385;DHT22;5747;56.748;13.882;2024-03-02T12:51:09;6.80;99.90
11385;DHT22;5747;56.748;13.882;2024-03-02T12:53:37;6.80;99.90
11385;DHT22;5747;56.748;13.882;2024-03-02T12:56:06;6.80;99.90
11385;DHT22;5747;56.748;13.882;2024-03-02T12:58:40;6.90;99.90
11385;DHT22;5747;56.748;13.882;2024-03-02T13:01:09;6.90;99.90
11385;DHT22;5747;56.748;13.882;2024-03-02T13:03:38;6.80;99.90
11385;DHT22;5747;56.748;13.882;2024-03-02T13:06:07;6.80;99.90
11385;DHT22;5747;56.748;13.882;2024-03-02T13:08:35;6.80;99.90
11385;DHT22;5747;56.748;13.882;2024-03-02T13:11:04;6.80;99.90
11385;DHT22;5747;56.748;13.882;2024-03-02T13:13:34;6.80;99.90
11385;DHT22;5747;56.748;13.882;2024-03-02T13:16:04;6.90;99.90
11385;DHT22;5747;56.748;13.882;2024-03-02T13:18:37;6.90;99.90
11385;DHT22;5747;56.748;13.882;2024-03-02T13:21:06;6.90;99.90
11385;DHT22;5747;56.748;13.882;2024-03-02T13:23:34;6.90;99.90
11385;DHT22;5747;56.748;13.882;2024-03-02T13:26:03;6.90;99.90
11385;DHT22;5747;56.748;13.882;2024-03-02T13:28:31;6.80;99.90
11385;DHT22;5747;56.748;13.882;2024-03-02T13:31:00;6.70;99.90
11385;DHT22;5747;56.748;13.882;2024-03-02T13:33:29;6.80;99.90
11385;DHT22;5747;56.748;13.882;2024-03-02T13:35:59;6.80;99.90
11385;DHT22;5747;56.748;13.882;2024-03-02T13:38:28;6.70;99.90
11385;DHT22;5747;56.748;13.882;2024-03-02T13:40:56;6.80;99.90
11385;DHT22;5747;56.748;13.882;2024-03-02T13:43:25;6.80;99.90
11385;DHT22;5747;56.748;13.882;2024-03-02T13:45:53;6.80;99.90
11385;DHT22;5747;56.748;13.882;2024-03-02T13:48:21;6.80;99.90
11385;DHT22;5747;56.748;13.882;2024-03-02T13:50:51;6.90;99.90
11385;DHT22;5747;56.748;13.882;2024-03-02T13:53:20;6.90;99.90
11385;DHT22;5747;56.748;13.882;2024-03-02T13:55:48;6.90;99.90
11385;DHT22;5747;56.748;13.882;2024-03-02T13:58:16;6.90;99.90
11385;DHT22;5747;56.748;13.882;2024-03-02T14:00:44;6.90;99.90
11385;DHT22;5747;56.748;13.882;2024-03-02T14:03:13;6.90;99.90
11385;DHT22;5747;56.748;13.882;2024-03-02T14:05:43;6.80;99.90
11385;DHT22;5747;56.748;13.882;2024-03-02T14:08:14;6.80;99.90
11385;DHT22;5747;56.748;13.882;2024-03-02T14:10:42;6.80;99.90
11385;DHT22;5747;56.748;13.882;2024-03-02T14:13:11;6.70;99.90
11385;DHT22;5747;56.748;13.882;2024-03-02T14:15:39;6.70;99.90
11385;DHT22;5747;56.748;13.882;2024-03-02T14:18:07;6.70;99.90
11385;DHT22;5747;56.748;13.882;2024-03-02T14:20:36;6.70;99.90
11385;DHT22;5747;56.748;13.882;2024-03-02T14:23:05;6.70;99.90
11385;DHT22;5747;56.748;13.882;2024-03-02T14:25:34;6.70;99.90
11385;DHT22;5747;56.748;13.882;2024-03-02T14:28:03;6.70;99.90
11385;DHT22;5747;56.748;13.882;2024-03-02T14:30:51;6.70;99.90
11385;DHT22;5747;56.748;13.882;2024-03-02T14:33:19;6.70;99.90
11385;DHT22;5747;56.748;13.882;2024-03-02T14:35:48;6.70;99.90
11385;DHT22;5747;56.748;13.882;2024-03-02T14:38:16;6.70;99.90
11385;DHT22;5747;56.748;13.882;2024-03-02T14:40:46;6.70;99.90
11385;DHT22;5747;56.748;13.882;2024-03-02T14:43:14;6.70;99.90
11385;DHT22;5747;56.748;13.882;2024-03-02T14:45:43;6.70;99.90
11385;DHT22;5747;56.748;13.882;2024-03-02T14:48:11;6.70;99.90
11385;DHT22;5747;56.748;13.882;2024-03-02T14:50:39;6.60;99.90
11385;DHT22;5747;56.748;13.882;2024-03-02T14:53:08;6.60;99.90
11385;DHT22;5747;56.748;13.882;2024-03-02T14:55:36;6.60;99.90
11385;DHT22;5747;56.748;13.882;2024-03-02T14:58:05;6.60;99.90
11385;DHT22;5747;56.748;13.882;2024-03-02T15:00:35;6.50;99.90
11385;DHT22;5747;56.748;13.882;2024-03-02T15:03:04;6.50;99.90
11385;DHT22;5747;56.748;13.882;2024-03-02T15:05:35;6.60;99.90
11385;DHT22;5747;56.748;13.882;2024-03-02T15:08:04;6.60;99.90
11385;DHT22;5747;56.748;13.882;2024-03-02T15:10:32;6.60;99.90
11385;DHT22;5747;56.748;13.882;2024-03-02T15:13:00;6.60;99.90
11385;DHT22;5747;56.748;13.882;2024-03-02T15:15:31;6.60;99.90
11385;DHT22;5747;56.748;13.882;2024-03-02T15:17:59;6.60;99.90
11385;DHT22;5747;56.748;13.882;2024-03-02T15:20:29;6.60;99.90
11385;DHT22;5747;56.748;13.882;2024-03-02T15:22:57;6.60;99.90
11385;DHT22;5747;56.748;13.882;2024-03-02T15:25:25;6.60;99.90
11385;DHT22;5747;56.748;13.882;2024-03-02T15:27:54;6.60;99.90
11385;DHT22;5747;56.748;13.882;2024-03-02T15:30:22;6.60;99.90
11385;DHT22;5747;56.748;13.882;2024-03-02T15:32:52;6.70;99.90
11385;DHT22;5747;56.748;13.882;2024-03-02T15:35:20;6.70;99.90
11385;DHT22;5747;56.748;13.882;2024-03-02T15:37:48;6.70;99.90
11385;DHT22;5747;56.748;13.882;2024-03-02T15:40:16;6.70;99.90
11385;DHT22;5747;56.748;13.882;2024-03-02T15:42:44;6.70;99.90
11385;DHT22;5747;56.748;13.882;2024-03-02T15:45:13;6.60;99.90
11385;DHT22;5747;56.748;13.882;2024-03-02T15:47:42;6.60;99.90
11385;DHT22;5747;56.748;13.882;2024-03-02T15:50:11;6.60;99.90
11385;DHT22;5747;56.748;13.882;2024-03-02T15:52:41;6.60;99.90
11385;DHT22;5747;56.748;13.882;2024-03-02T15:55:12;6.60;99.90
11385;DHT22;5747;56.748;13.882;2024-03-02T15:57:40;6.60;99.90
11385;DHT22;5747;56.748;13.882;2024-03-02T16:00:09;6.60;99.90
11385;DHT22;5747;56.748;13.882;2024-03-02T16:02:38;6.50;99.90